Time;durP1;ratioP1;P1;durP2;ratioP2;P2;SDS_P1;SDS_P2;PMS_P1;PMS_P2;Temp;Humidity;BMP_temperature;BMP_pressure;BME280_temperature;BME280_humidity;BME280_pressure;Samples;Min_cycle;Max_cycle;Signal;HPM_P1;HPM_P2
2020/12/12 00:01:41;;;;;;;66.50;29.00;;;;;;;5.35;69.48;92716.28;5010577;28;20117;-67
2020/12/12 00:04:07;;;;;;;67.43;29.25;;;;;;;5.38;69.70;92715.66;5010627;28;20029;-67
2020/12/12 00:06:32;;;;;;;56.90;27.48;;;;;;;5.40;69.97;92724.06;5011007;28;20036;-68
2020/12/12 00:08:57;;;;;;;57.22;28.90;;;;;;;5.41;69.95;92712.41;5010747;28;20029;-67
2020/12/12 00:11:23;;;;;;;59.47;25.95;;;;;;;5.43;70.19;92698.88;5010834;28;20101;-67
2020/12/12 00:13:48;;;;;;;58.70;29.45;;;;;;;5.42;70.56;92706.03;5009526;28;20025;-67
2020/12/12 00:16:16;;;;;;;69.78;29.63;;;;;;;5.43;70.33;92699.66;5009478;28;20121;-67
2020/12/12 00:18:41;;;;;;;60.03;28.92;;;;;;;5.45;70.51;92701.97;5010833;28;20049;-67
2020/12/12 00:21:07;;;;;;;65.82;28.77;;;;;;;5.45;70.81;92695.91;5010837;28;20081;-67
2020/12/12 00:23:33;;;;;;;60.35;29.70;;;;;;;5.47;70.55;92704.31;5009210;28;20091;-68
2020/12/12 00:25:58;;;;;;;72.10;29.48;;;;;;;5.48;70.59;92697.97;5010976;28;20034;-67
2020/12/12 00:28:24;;;;;;;60.42;29.00;;;;;;;5.48;70.85;92688.16;5010634;28;20068;-67
2020/12/12 00:30:49;;;;;;;68.90;29.88;;;;;;;5.50;70.73;92687.84;5009061;28;20029;-67
2020/12/12 00:33:15;;;;;;;53.88;25.85;;;;;;;5.50;70.80;92683.34;5010614;28;20026;-67
2020/12/12 00:35:40;;;;;;;67.57;28.70;;;;;;;5.51;70.74;92684.09;5008972;28;20478;-68
2020/12/12 00:38:06;;;;;;;60.08;29.33;;;;;;;5.55;70.78;92677.13;5010527;28;20033;-67
2020/12/12 00:40:31;;;;;;;50.60;27.30;;;;;;;5.59;70.90;92672.75;5010610;28;20025;-67
2020/12/12 00:42:57;;;;;;;56.83;25.13;;;;;;;5.61;70.78;92673.22;5009009;28;20034;-67
2020/12/12 00:45:22;;;;;;;58.83;26.35;;;;;;;5.62;70.67;92670.28;5009992;28;20052;-67
2020/12/12 00:47:48;;;;;;;50.92;22.88;;;;;;;5.62;70.91;92669.50;5010459;28;20076;-67
2020/12/12 00:50:13;;;;;;;31.30;17.45;;;;;;;5.64;71.24;92667.34;5010802;28;20026;-67
2020/12/12 00:52:39;;;;;;;18.23;10.82;;;;;;;5.71;71.28;92659.72;5010689;28;20049;-67
2020/12/12 00:55:04;;;;;;;15.27;9.50;;;;;;;5.81;71.35;92662.03;5010467;28;20049;-67
2020/12/12 00:57:30;;;;;;;21.63;9.13;;;;;;;5.87;71.31;92657.38;5009055;28;20404;-66
2020/12/12 00:59:55;;;;;;;17.35;8.73;;;;;;;5.99;70.95;92656.78;5009396;28;20556;-67
2020/12/12 01:02:20;;;;;;;13.80;8.27;;;;;;;6.09;70.53;92655.69;5008700;28;20038;-65
2020/12/12 01:04:46;;;;;;;15.70;8.48;;;;;;;6.17;70.20;92658.31;5009031;28;20413;-65
2020/12/12 01:07:11;;;;;;;16.58;8.85;;;;;;;6.25;69.94;92656.72;5008938;28;20116;-67
2020/12/12 01:09:37;;;;;;;18.23;8.45;;;;;;;6.33;69.62;92647.19;5010259;28;20026;-67
2020/12/12 01:12:02;;;;;;;13.15;7.28;;;;;;;6.37;69.44;92648.13;5008934;28;20022;-68
2020/12/12 01:14:27;;;;;;;13.32;7.63;;;;;;;6.45;69.40;92647.31;5008910;28;20070;-68
2020/12/12 01:16:53;;;;;;;14.88;8.23;;;;;;;6.54;68.86;92639.38;5010322;28;20041;-68
2020/12/12 01:19:19;;;;;;;11.48;7.43;;;;;;;6.59;68.76;92637.34;5010228;28;20163;-68
2020/12/12 01:21:45;;;;;;;15.52;8.50;;;;;;;6.62;68.64;92636.69;5010122;28;20029;-68
2020/12/12 01:24:15;;;;;;;17.02;7.97;;;;;;;6.65;68.65;92635.25;5010138;28;20025;-68
2020/12/12 01:26:44;;;;;;;15.18;7.30;;;;;;;6.66;68.84;92625.47;5010121;28;20056;-68
2020/12/12 01:29:09;;;;;;;14.48;7.63;;;;;;;6.65;68.64;92626.56;5010101;28;20124;-68
2020/12/12 01:31:35;;;;;;;16.50;8.45;;;;;;;6.65;68.92;92623.91;5008811;28;20030;-68
2020/12/12 01:34:00;;;;;;;12.18;7.18;;;;;;;6.65;68.77;92629.19;5008966;28;20061;-68
2020/12/12 01:36:26;;;;;;;12.18;7.47;;;;;;;6.67;69.01;92627.00;5010006;28;20045;-68
2020/12/12 01:38:51;;;;;;;11.00;7.03;;;;;;;6.69;69.29;92622.16;5009753;28;20030;-68
2020/12/12 01:41:18;;;;;;;14.32;7.95;;;;;;;6.65;69.60;92619.38;5008560;28;20038;-68
2020/12/12 01:43:49;;;;;;;14.98;8.68;;;;;;;6.64;69.74;92615.19;5009594;28;20033;-68
2020/12/12 01:46:21;;;;;;;13.07;8.13;;;;;;;6.64;69.91;92612.53;5010328;28;20029;-68
2020/12/12 01:48:46;;;;;;;15.10;7.63;;;;;;;6.62;70.00;92604.91;5004051;28;20412;-68
2020/12/12 01:51:12;;;;;;;15.55;8.43;;;;;;;6.68;70.17;92608.16;5009785;28;20026;-68
2020/12/12 01:53:37;;;;;;;12.43;7.40;;;;;;;6.66;70.15;92604.28;5009842;28;20111;-68
2020/12/12 01:56:03;;;;;;;20.63;8.35;;;;;;;6.64;70.62;92607.25;5010033;28;20034;-68
2020/12/12 01:58:28;;;;;;;13.27;8.65;;;;;;;6.65;70.65;92606.13;5012021;28;20041;-68
2020/12/12 02:00:54;;;;;;;17.67;9.80;;;;;;;6.67;70.86;92600.53;5012090;28;20026;-67
2020/12/12 02:03:21;;;;;;;13.32;8.20;;;;;;;6.66;70.84;92601.63;5012104;28;20057;-67
2020/12/12 02:05:47;;;;;;;12.77;8.25;;;;;;;6.68;71.08;92600.22;5012043;28;20064;-67
2020/12/12 02:08:14;;;;;;;16.52;8.57;;;;;;;6.68;71.08;92589.63;5010716;28;20022;-67
2020/12/12 02:10:46;;;;;;;12.60;6.75;;;;;;;6.67;71.07;92595.22;5011901;28;20022;-67
2020/12/12 02:13:12;;;;;;;14.93;8.75;;;;;;;6.68;70.98;92592.28;5012969;28;20026;-67
2020/12/12 02:15:39;;;;;;;14.73;7.88;;;;;;;6.68;71.10;92586.22;5011967;28;20040;-67
2020/12/12 02:18:19;;;;;;;16.30;8.20;;;;;;;6.67;71.37;92584.66;5013049;28;20474;-67
2020/12/12 02:20:56;;;;;;;15.20;7.78;;;;;;;6.65;71.52;92586.84;5013192;28;20026;-67
2020/12/12 02:23:22;;;;;;;14.43;8.43;;;;;;;6.62;71.72;92586.38;5011046;28;20096;-67
2020/12/12 02:25:48;;;;;;;13.95;7.88;;;;;;;6.63;71.74;92577.34;5012947;28;20037;-67
2020/12/12 02:28:16;;;;;;;16.17;8.43;;;;;;;6.65;71.46;92576.25;5011514;28;20105;-67
2020/12/12 02:30:42;;;;;;;12.60;6.65;;;;;;;6.62;71.88;92572.38;5012832;28;20026;-67
2020/12/12 02:33:08;;;;;;;12.88;7.95;;;;;;;6.60;71.99;92570.03;5013117;28;20022;-68
2020/12/12 02:35:33;;;;;;;15.65;7.90;;;;;;;6.61;71.97;92566.31;5011935;28;20358;-67
2020/12/12 02:37:59;;;;;;;10.57;7.38;;;;;;;6.60;71.97;92574.56;5012840;28;20065;-67
2020/12/12 02:40:24;;;;;;;11.93;7.13;;;;;;;6.58;71.81;92566.94;5009045;28;20032;-67
2020/12/12 02:42:50;;;;;;;12.25;6.65;;;;;;;6.58;72.20;92559.00;5011296;28;20045;-67
2020/12/12 02:45:17;;;;;;;10.13;6.30;;;;;;;6.61;71.86;92563.66;5011163;28;20513;-67
2020/12/12 02:47:44;;;;;;;12.07;6.35;;;;;;;6.63;71.46;92560.66;5011668;28;20452;-67
2020/12/12 02:50:12;;;;;;;11.70;6.20;;;;;;;6.57;71.66;92557.44;5011171;28;20021;-67
2020/12/12 02:52:38;;;;;;;11.20;4.75;;;;;;;6.60;71.72;92546.22;5011174;28;20552;-67
2020/12/12 02:55:06;;;;;;;9.80;5.68;;;;;;;6.60;71.41;92558.69;5012608;28;20401;-67
2020/12/12 02:57:33;;;;;;;8.13;4.95;;;;;;;6.61;71.45;92555.72;5012372;28;20026;-67
2020/12/12 02:59:58;;;;;;;7.03;4.65;;;;;;;6.61;71.45;92558.38;5011568;28;20029;-67
2020/12/12 03:02:24;;;;;;;6.28;4.10;;;;;;;6.62;71.49;92559.91;5012009;28;20452;-67
2020/12/12 03:04:49;;;;;;;9.38;4.18;;;;;;;6.63;71.38;92548.22;5012374;28;20029;-67
2020/12/12 03:07:15;;;;;;;12.25;4.43;;;;;;;6.65;71.52;92541.81;5010677;28;20494;-68
2020/12/12 03:09:40;;;;;;;7.25;4.70;;;;;;;6.65;71.29;92544.47;5011869;28;20048;-67
2020/12/12 03:12:06;;;;;;;7.88;4.38;;;;;;;6.64;71.34;92549.00;5012094;28;20495;-67
2020/12/12 03:14:31;;;;;;;7.65;4.35;;;;;;;6.62;71.02;92549.31;5012170;28;20108;-67
2020/12/12 03:16:56;;;;;;;6.07;3.92;;;;;;;6.65;70.56;92544.47;5012077;28;20511;-67
2020/12/12 03:19:22;;;;;;;5.38;3.00;;;;;;;6.58;70.15;92551.03;5011779;28;20088;-67
2020/12/12 03:21:48;;;;;;;5.43;2.80;;;;;;;6.55;69.96;92546.38;5010610;28;20497;-67
2020/12/12 03:24:13;;;;;;;3.67;2.08;;;;;;;6.48;69.96;92550.63;5010785;28;20026;-67
2020/12/12 03:26:38;;;;;;;5.18;2.17;;;;;;;6.45;70.11;92530.84;5010529;28;20029;-67
2020/12/12 03:29:04;;;;;;;3.53;2.20;;;;;;;6.45;69.90;92538.03;5010744;28;20041;-67
2020/12/12 03:31:29;;;;;;;5.07;1.73;;;;;;;6.41;69.92;92537.88;5011604;28;20021;-67
2020/12/12 03:33:55;;;;;;;3.45;1.70;;;;;;;6.42;69.53;92542.88;5010625;28;20084;-67
2020/12/12 03:36:20;;;;;;;2.75;1.42;;;;;;;6.43;68.98;92538.34;5010285;28;20029;-67
2020/12/12 03:38:46;;;;;;;3.20;1.20;;;;;;;6.38;69.03;92525.31;5011647;28;20117;-67
2020/12/12 03:41:11;;;;;;;3.35;1.98;;;;;;;6.38;69.10;92530.59;5011480;28;20028;-67
2020/12/12 03:43:36;;;;;;;3.05;1.52;;;;;;;6.37;68.74;92526.38;5011344;28;20034;-67
2020/12/12 03:46:02;;;;;;;2.33;1.55;;;;;;;6.37;68.71;92519.25;5010468;28;20026;-67
2020/12/12 03:48:28;;;;;;;5.47;2.75;;;;;;;6.34;69.51;92534.97;5010192;28;20519;-67
2020/12/12 03:50:54;;;;;;;5.32;2.75;;;;;;;6.33;69.79;92517.53;5011092;28;20107;-67
2020/12/12 03:53:19;;;;;;;4.30;2.50;;;;;;;6.25;69.88;92527.06;5011460;28;20053;-67
2020/12/12 03:55:44;;;;;;;4.63;2.20;;;;;;;6.24;69.84;92520.22;5011104;28;20123;-67
2020/12/12 03:58:10;;;;;;;6.13;2.13;;;;;;;6.25;69.39;92521.78;5011452;28;20021;-67
2020/12/12 04:00:35;;;;;;;4.63;1.90;;;;;;;6.27;69.59;92516.16;5011314;28;20091;-67
2020/12/12 04:03:01;;;;;;;6.97;3.30;;;;;;;6.15;69.85;92509.69;5011127;28;20097;-67
2020/12/12 04:05:26;;;;;;;4.40;2.72;;;;;;;6.14;70.43;92510.75;5011119;28;20061;-67
2020/12/12 04:07:52;;;;;;;4.40;2.65;;;;;;;6.12;70.11;92512.19;5010969;28;20453;-65
2020/12/12 04:10:17;;;;;;;3.47;2.05;;;;;;;6.08;69.97;92509.38;5011092;28;20370;-66
2020/12/12 04:12:43;;;;;;;5.82;2.90;;;;;;;6.12;70.40;92506.88;5009403;28;20094;-66
2020/12/12 04:15:08;;;;;;;5.60;3.00;;;;;;;6.07;70.30;92515.00;5009646;28;20025;-66
2020/12/12 04:17:33;;;;;;;6.85;3.60;;;;;;;6.03;70.70;92514.88;5009542;28;20493;-66
2020/12/12 04:19:59;;;;;;;3.75;2.40;;;;;;;5.99;70.59;92503.38;5009952;28;20029;-65
2020/12/12 04:22:24;;;;;;;4.90;2.47;;;;;;;5.99;70.95;92503.38;5010695;28;20061;-66
2020/12/12 04:24:50;;;;;;;5.03;2.50;;;;;;;5.95;70.50;92497.16;5009283;28;20104;-66
2020/12/12 04:27:15;;;;;;;4.90;2.78;;;;;;;5.94;70.66;92499.00;5009389;28;20071;-66
2020/12/12 04:29:41;;;;;;;3.28;1.80;;;;;;;5.95;70.56;92499.81;5009328;28;20060;-66
2020/12/12 04:32:06;;;;;;;4.72;2.08;;;;;;;5.90;70.75;92494.66;5011029;28;20109;-66
2020/12/12 04:34:31;;;;;;;3.72;2.03;;;;;;;5.90;70.72;92502.56;5010353;28;20032;-66
2020/12/12 04:36:57;;;;;;;3.22;1.80;;;;;;;5.92;70.61;92500.41;5010454;28;20061;-66
2020/12/12 04:39:22;;;;;;;4.40;2.08;;;;;;;5.92;69.97;92495.91;5009041;28;20033;-66
2020/12/12 04:41:52;;;;;;;2.35;1.30;;;;;;;5.95;69.66;92492.63;5010221;28;20120;-66
2020/12/12 04:44:17;;;;;;;3.28;1.48;;;;;;;5.93;69.55;92496.66;5009347;28;20535;-66
2020/12/12 04:46:44;;;;;;;3.08;1.80;;;;;;;5.92;69.39;92487.16;5009265;28;20033;-66
2020/12/12 04:49:10;;;;;;;1.90;1.00;;;;;;;5.93;69.02;92494.03;5010568;28;20022;-66
2020/12/12 04:51:36;;;;;;;3.03;1.30;;;;;;;5.86;68.86;92489.22;5009158;28;20018;-66
2020/12/12 04:54:02;;;;;;;2.65;1.40;;;;;;;5.85;68.83;92482.38;5010556;28;20093;-66
2020/12/12 04:56:35;;;;;;;1.90;0.88;;;;;;;5.76;69.09;92479.78;5008822;28;20037;-66
2020/12/12 04:59:03;;;;;;;1.80;0.90;;;;;;;5.78;69.47;92488.16;5009118;28;20029;-66
2020/12/12 05:01:31;;;;;;;1.08;0.70;;;;;;;5.78;69.24;92480.22;5010134;28;20089;-66
2020/12/12 05:03:57;;;;;;;3.00;1.08;;;;;;;5.73;69.44;92484.91;5010242;28;20029;-67
2020/12/12 05:06:30;;;;;;;3.72;1.75;;;;;;;5.78;69.30;92495.31;5010291;28;20033;-68
2020/12/12 05:08:55;;;;;;;2.00;1.20;;;;;;;5.80;69.39;92480.69;5008958;28;20026;-67
2020/12/12 05:11:25;;;;;;;3.38;1.50;;;;;;;5.79;69.42;92473.84;5009046;28;20034;-66
2020/12/12 05:13:52;;;;;;;3.97;1.92;;;;;;;5.80;68.97;92475.41;5007715;28;20030;-67
2020/12/12 05:16:19;;;;;;;3.97;1.88;;;;;;;5.79;69.08;92479.13;5010004;28;20108;-67
2020/12/12 05:18:45;;;;;;;4.35;1.67;;;;;;;5.80;69.05;92475.41;5009964;28;20164;-66
2020/12/12 05:21:11;;;;;;;4.05;1.90;;;;;;;5.80;69.08;92451.59;5010162;28;20113;-67
2020/12/12 05:23:38;;;;;;;11.43;3.92;;;;;;;5.79;69.14;92481.78;5009881;28;20029;-66
2020/12/12 05:26:03;;;;;;;4.20;1.98;;;;;;;5.75;69.25;92470.28;5009957;28;20034;-67
2020/12/12 05:28:29;;;;;;;2.92;1.05;;;;;;;5.77;69.36;92465.44;5008726;28;20030;-66
2020/12/12 05:30:54;;;;;;;5.30;2.10;;;;;;;5.78;69.18;92459.09;5008723;28;20511;-67
2020/12/12 05:33:25;;;;;;;4.78;1.70;;;;;;;5.80;69.37;92472.75;5014015;28;20022;-67
2020/12/12 05:35:52;;;;;;;3.30;1.45;;;;;;;5.74;69.55;92460.81;5012570;28;20095;-67
2020/12/12 05:38:17;;;;;;;5.40;1.85;;;;;;;5.72;69.35;92463.00;5012582;28;20061;-67
2020/12/12 05:40:49;;;;;;;3.97;1.85;;;;;;;5.75;69.33;92461.56;5012280;28;20497;-67
2020/12/12 05:43:15;;;;;;;4.57;2.67;;;;;;;5.78;69.26;92466.22;5012300;28;20624;-67
2020/12/12 05:45:41;;;;;;;5.68;3.53;;;;;;;5.78;69.47;92460.94;5013518;28;20041;-67
2020/12/12 05:48:08;;;;;;;3.60;1.77;;;;;;;5.80;69.37;92462.19;5012218;28;20021;-66
2020/12/12 05:50:34;;;;;;;2.97;1.48;;;;;;;5.84;69.21;92454.38;5013541;28;20025;-66
2020/12/12 05:53:00;;;;;;;2.42;1.10;;;;;;;5.88;69.04;92459.81;5013486;28;20056;-67
2020/12/12 05:55:32;;;;;;;2.72;1.25;;;;;;;5.89;69.05;92464.03;5012736;28;20432;-66
2020/12/12 05:57:58;;;;;;;4.82;1.45;;;;;;;5.88;68.88;92457.16;5013474;28;20026;-66
2020/12/12 06:00:26;;;;;;;2.50;1.40;;;;;;;5.89;68.62;92456.09;5013733;28;20036;-66
2020/12/12 06:03:40;;;;;;;3.78;1.42;;;;;;;5.86;68.86;92456.72;5013708;28;20026;-66
2020/12/12 06:06:06;;;;;;;2.70;1.40;;;;;;;5.86;68.78;92460.13;4995550;28;20041;-67
2020/12/12 06:08:37;;;;;;;4.72;2.13;;;;;;;5.91;68.71;92459.19;5012001;28;20398;-67
2020/12/12 06:11:06;;;;;;;4.55;2.35;;;;;;;5.93;68.88;92451.72;5009350;28;20099;-67
2020/12/12 06:13:35;;;;;;;4.53;2.65;;;;;;;5.94;68.87;92443.47;5013205;28;20100;-67
2020/12/12 06:16:03;;;;;;;5.35;2.95;;;;;;;5.94;68.97;92447.97;5011421;28;20030;-67
2020/12/12 06:18:41;;;;;;;5.72;3.25;;;;;;;5.96;69.05;92445.81;5012992;28;20026;-67
2020/12/12 06:21:08;;;;;;;5.80;3.35;;;;;;;5.92;69.19;92442.22;5011236;28;20156;-67
2020/12/12 06:23:39;;;;;;;7.63;4.25;;;;;;;5.90;69.39;92447.03;5012813;28;20034;-67
2020/12/12 06:26:05;;;;;;;14.90;7.53;;;;;;;5.92;69.59;92450.16;5012663;28;20490;-67
2020/12/12 06:28:36;;;;;;;18.15;8.85;;;;;;;5.93;69.34;92454.34;5012985;28;20021;-67
2020/12/12 06:31:02;;;;;;;14.38;6.90;;;;;;;5.97;69.19;92444.72;5011392;28;20104;-67
2020/12/12 06:33:27;;;;;;;13.25;6.40;;;;;;;5.97;69.38;92442.84;5011424;28;20029;-67
2020/12/12 06:35:54;;;;;;;10.48;5.85;;;;;;;5.99;69.01;92445.19;5012730;28;20025;-67
2020/12/12 06:38:28;;;;;;;10.88;6.18;;;;;;;6.00;69.03;92446.72;5011123;28;20117;-67
2020/12/12 06:40:59;;;;;;;13.73;7.50;;;;;;;6.01;69.04;92441.13;5011371;28;20481;-67
2020/12/12 06:43:36;;;;;;;15.43;8.20;;;;;;;6.04;68.80;92445.00;5011569;28;20085;-66
2020/12/12 06:46:06;;;;;;;12.77;6.43;;;;;;;6.02;68.83;92440.03;5011036;28;20084;-67
2020/12/12 06:48:33;;;;;;;16.85;7.25;;;;;;;6.04;68.77;92442.34;5012550;28;20022;-66
2020/12/12 06:51:01;;;;;;;16.35;4.97;;;;;;;6.08;68.92;92437.97;5011251;28;20021;-66
2020/12/12 06:53:28;;;;;;;6.95;3.17;;;;;;;6.11;68.20;92437.34;5010997;28;20018;-66
2020/12/12 06:56:14;;;;;;;3.20;1.90;;;;;;;6.10;68.33;92446.34;5012671;28;20037;-67
2020/12/12 06:58:43;;;;;;;6.28;2.72;;;;;;;6.09;68.27;92439.53;5011250;28;20036;-67
2020/12/12 07:01:33;;;;;;;6.00;2.58;;;;;;;6.08;68.55;92448.53;5012039;28;20033;-67
2020/12/12 07:04:06;;;;;;;6.13;2.55;;;;;;;6.09;68.25;92439.53;5005670;28;20026;-67
2020/12/12 07:06:35;;;;;;;6.10;3.00;;;;;;;6.10;68.24;92446.34;5010797;28;20088;-67
2020/12/12 07:09:05;;;;;;;8.90;2.80;;;;;;;6.11;68.59;92432.06;5010938;28;20489;-67
2020/12/12 07:11:33;;;;;;;5.28;2.58;;;;;;;6.13;68.51;92437.78;5010940;28;20026;-66
2020/12/12 07:14:00;;;;;;;5.85;3.15;;;;;;;6.14;68.55;92435.91;5012308;28;20061;-66
2020/12/12 07:16:27;;;;;;;7.82;4.20;;;;;;;6.15;68.93;92432.19;5010872;28;20033;-67
2020/12/12 07:18:53;;;;;;;6.47;3.92;;;;;;;6.17;69.06;92430.00;5010985;28;20026;-68
2020/12/12 07:21:19;;;;;;;9.98;3.83;;;;;;;6.21;68.99;92433.56;5011678;28;20435;-67
2020/12/12 07:23:49;;;;;;;7.63;3.67;;;;;;;6.21;69.19;92429.03;5010550;28;20065;-67
2020/12/12 07:26:15;;;;;;;7.93;3.67;;;;;;;6.23;69.51;92426.84;5012089;28;20061;-67
2020/12/12 07:28:40;;;;;;;10.55;4.03;;;;;;;6.26;69.51;92427.31;5011574;28;20375;-65
2020/12/12 07:31:06;;;;;;;9.25;4.13;;;;;;;6.26;69.40;92425.41;5010509;28;20509;-66
2020/12/12 07:33:32;;;;;;;24.45;13.85;;;;;;;6.29;69.37;92431.94;5011725;28;20093;-66
2020/12/12 07:35:57;;;;;;;27.38;15.38;;;;;;;6.30;69.15;92426.34;5010290;28;20028;-65
2020/12/12 07:38:24;;;;;;;15.77;9.43;;;;;;;6.32;69.09;92426.03;5011962;28;20026;-66
2020/12/12 07:40:49;;;;;;;11.93;7.03;;;;;;;6.34;68.98;92423.81;5011620;28;20037;-66
2020/12/12 07:43:15;;;;;;;14.80;5.50;;;;;;;6.35;68.60;92420.06;5011687;28;20049;-66
2020/12/12 07:45:55;;;;;;;8.15;5.13;;;;;;;6.37;68.48;92418.69;5010042;28;20072;-66
2020/12/12 07:48:21;;;;;;;10.38;5.10;;;;;;;6.40;68.17;92423.31;5003128;28;20049;-66
2020/12/12 07:50:47;;;;;;;9.10;4.55;;;;;;;6.40;67.72;92425.19;5010941;28;20042;-67
2020/12/12 07:53:15;;;;;;;10.07;4.45;;;;;;;6.40;67.58;92417.25;5009838;28;20080;-66
2020/12/12 07:55:44;;;;;;;9.73;5.28;;;;;;;6.44;67.79;92423.44;5011763;28;20037;-67
2020/12/12 07:58:17;;;;;;;11.00;5.03;;;;;;;6.44;68.02;92426.09;5011628;28;20408;-67
2020/12/12 08:00:43;;;;;;;7.50;4.32;;;;;;;6.45;68.01;92424.97;5010352;28;20547;-67
2020/12/12 08:03:09;;;;;;;8.98;3.92;;;;;;;6.46;68.07;92425.78;5011436;28;20033;-66
2020/12/12 08:05:34;;;;;;;8.50;4.50;;;;;;;6.49;68.17;92420.59;5010078;28;20096;-67
2020/12/12 08:08:08;;;;;;;6.32;3.60;;;;;;;6.54;68.13;92420.41;5011556;28;20036;-67
2020/12/12 08:10:34;;;;;;;8.10;3.72;;;;;;;6.58;67.90;92418.69;5010332;28;20033;-67
2020/12/12 08:13:00;;;;;;;7.03;3.30;;;;;;;6.60;67.67;92413.06;5009799;28;20013;-67
2020/12/12 08:15:31;;;;;;;7.70;3.40;;;;;;;6.66;67.29;92418.94;5011365;28;20080;-67
2020/12/12 08:17:56;;;;;;;8.63;3.38;;;;;;;6.65;67.11;92420.81;5009524;28;20026;-69
2020/12/12 08:20:25;;;;;;;6.80;3.00;;;;;;;6.68;67.22;92420.16;5009790;28;20072;-68
2020/12/12 08:22:51;;;;;;;7.53;3.20;;;;;;;6.67;67.00;92423.13;5011025;28;20018;-70
2020/12/12 08:25:20;;;;;;;16.75;4.60;;;;;;;6.68;66.65;92424.69;5011582;28;20101;-70
2020/12/12 08:27:46;;;;;;;10.48;3.60;;;;;;;6.61;66.37;92419.91;5010060;28;20099;-70
2020/12/12 08:30:12;;;;;;;9.88;3.90;;;;;;;6.53;67.42;92418.84;5009962;28;20026;-70
2020/12/12 08:32:40;;;;;;;6.60;3.92;;;;;;;6.50;68.11;92431.97;5011337;28;20029;-71
2020/12/12 08:35:33;;;;;;;6.60;3.33;;;;;;;6.53;67.22;92416.22;5010768;28;20073;-70
2020/12/12 08:38:04;;;;;;;5.55;3.53;;;;;;;6.39;67.88;92421.78;5008686;28;20512;-70
2020/12/12 08:40:42;;;;;;;8.30;3.38;;;;;;;6.38;68.51;92430.03;5009176;28;20056;-70
2020/12/12 08:43:08;;;;;;;4.68;2.53;;;;;;;6.39;67.42;92428.91;5010039;28;20072;-70
2020/12/12 08:45:39;;;;;;;4.60;2.72;;;;;;;6.35;68.06;92428.81;5009327;28;20049;-70
2020/12/12 08:48:13;;;;;;;6.20;3.80;;;;;;;6.32;69.00;92426.03;5010287;28;20029;-69
2020/12/12 08:50:56;;;;;;;7.35;4.93;;;;;;;6.25;70.07;92426.53;4998778;28;20048;-69
2020/12/12 08:53:33;;;;;;;8.32;3.95;;;;;;;6.16;70.62;92426.56;5006077;28;20440;-69
2020/12/12 08:56:08;;;;;;;6.45;3.28;;;;;;;6.09;70.84;92415.72;5008825;28;20030;-69
2020/12/12 08:58:48;;;;;;;15.02;4.85;;;;;;;6.07;71.18;92422.44;5008960;28;20125;-70
2020/12/12 09:01:22;;;;;;;10.95;3.70;;;;;;;6.03;71.30;92415.13;5010088;28;20504;-69
2020/12/12 09:04:00;;;;;;;6.68;3.42;;;;;;;5.99;71.00;92421.38;5009947;28;20022;-68
2020/12/12 09:06:27;;;;;;;8.90;3.92;;;;;;;5.91;71.61;92422.16;5011918;28;20032;-71
2020/12/12 09:09:15;;;;;;;6.57;2.90;;;;;;;5.85;71.03;92410.22;5016541;28;20041;-70
2020/12/12 09:12:04;;;;;;;8.60;3.70;;;;;;;5.78;72.32;92414.13;5016478;28;20036;-70
2020/12/12 09:14:37;;;;;;;8.07;4.72;;;;;;;5.67;72.63;92412.94;5016534;28;20397;-70
2020/12/12 09:17:06;;;;;;;10.07;5.32;;;;;;;5.61;73.17;92419.47;5016506;28;20029;-72
2020/12/12 09:19:33;;;;;;;14.88;5.47;;;;;;;5.56;73.94;92417.03;5014995;28;20477;-69
2020/12/12 09:21:59;;;;;;;9.23;2.88;;;;;;;5.62;73.71;92410.47;5016395;28;20104;-71
2020/12/12 09:24:25;;;;;;;4.82;2.17;;;;;;;5.63;72.43;92407.50;5014930;28;20041;-69
2020/12/12 09:26:54;;;;;;;6.95;2.50;;;;;;;5.65;71.83;92398.47;5015370;28;20367;-70
2020/12/12 09:29:20;;;;;;;5.90;2.67;;;;;;;5.65;71.60;92391.31;5014806;28;20123;-70
2020/12/12 09:31:48;;;;;;;7.53;3.13;;;;;;;5.59;71.68;92395.22;5015267;28;20481;-70
2020/12/12 09:34:13;;;;;;;9.52;3.45;;;;;;;5.53;72.31;92401.78;5015025;28;20466;-71
2020/12/12 09:36:39;;;;;;;6.68;3.30;;;;;;;5.49;72.34;92401.63;5016156;28;20109;-70
2020/12/12 09:39:05;;;;;;;6.43;3.05;;;;;;;5.50;72.28;92397.16;5014924;28;20036;-69
2020/12/12 09:41:30;;;;;;;13.85;3.60;;;;;;;5.53;72.30;92394.63;5015674;28;20050;-69
2020/12/12 09:43:55;;;;;;;14.15;4.28;;;;;;;5.56;72.81;92399.28;5014994;28;20061;-69
2020/12/12 09:46:21;;;;;;;14.27;4.78;;;;;;;5.60;72.98;92394.16;5016011;28;20021;-71
2020/12/12 09:48:47;;;;;;;14.05;5.25;;;;;;;5.63;73.13;92381.06;5016103;28;20480;-70
2020/12/12 09:51:14;;;;;;;22.60;9.02;;;;;;;5.72;73.03;92383.69;5016555;28;20034;-70
2020/12/12 09:53:45;;;;;;;14.80;7.13;;;;;;;5.73;72.82;92387.09;5015769;28;20029;-71
2020/12/12 09:56:16;;;;;;;13.65;6.22;;;;;;;5.75;72.76;92390.19;5016445;28;20048;-69
2020/12/12 09:58:43;;;;;;;10.48;4.80;;;;;;;5.80;72.78;92390.00;5015918;28;20026;-69
2020/12/12 10:01:10;;;;;;;7.47;4.43;;;;;;;5.85;72.31;92397.00;5016332;28;20144;-71
2020/12/12 10:03:35;;;;;;;6.22;3.28;;;;;;;5.81;71.77;92386.28;5015829;28;20033;-69
2020/12/12 10:06:01;;;;;;;9.40;3.90;;;;;;;5.77;71.96;92390.66;5015698;28;20551;-70
2020/12/12 10:08:26;;;;;;;7.22;3.13;;;;;;;5.77;72.14;92396.72;5016364;28;20544;-69
2020/12/12 10:10:53;;;;;;;6.82;3.42;;;;;;;5.80;71.66;92380.22;5016073;28;20112;-70
2020/12/12 10:13:19;;;;;;;8.40;4.20;;;;;;;5.74;72.20;92384.13;5016159;28;20120;-69
2020/12/12 10:15:46;;;;;;;7.55;4.03;;;;;;;5.75;72.20;92383.03;5015124;28;20030;-69
2020/12/12 10:18:12;;;;;;;5.45;3.13;;;;;;;5.63;70.38;92385.56;5013425;28;20382;-70
2020/12/12 10:20:37;;;;;;;6.35;3.90;;;;;;;5.56;71.52;92388.72;5012915;28;20083;-70
2020/12/12 10:23:04;;;;;;;7.28;3.80;;;;;;;5.50;72.20;92382.06;5012779;28;20176;-69
2020/12/12 10:25:29;;;;;;;5.50;2.65;;;;;;;5.32;73.50;92383.97;5011740;28;20030;-69
2020/12/12 10:27:56;;;;;;;5.55;2.70;;;;;;;5.38;72.55;92374.78;5013083;28;20037;-69
2020/12/12 10:30:22;;;;;;;8.63;4.18;;;;;;;5.43;73.15;92376.47;5013068;28;20033;-70
2020/12/12 10:32:47;;;;;;;7.53;3.80;;;;;;;5.36;73.04;92376.97;5011631;28;20484;-69
2020/12/12 10:35:13;;;;;;;6.82;3.25;;;;;;;5.37;72.40;92370.63;5012472;28;20544;-69
2020/12/12 10:37:39;;;;;;;7.60;3.35;;;;;;;5.32;72.96;92376.06;5011140;28;20060;-70
2020/12/12 10:40:19;;;;;;;6.00;3.00;;;;;;;5.32;72.38;92370.78;5012465;28;20057;-71
2020/12/12 10:42:45;;;;;;;7.00;3.47;;;;;;;5.31;72.11;92374.53;5012574;28;20501;-67
2020/12/12 10:45:11;;;;;;;7.10;3.45;;;;;;;5.21;72.03;92367.72;5012421;28;20057;-69
2020/12/12 10:47:37;;;;;;;5.70;3.40;;;;;;;5.21;72.43;92362.41;5011248;28;20418;-69
2020/12/12 10:50:04;;;;;;;15.15;7.38;;;;;;;5.14;73.58;92364.00;5011127;28;20025;-68
2020/12/12 10:52:30;;;;;;;6.28;2.85;;;;;;;5.13;72.04;92363.22;5011189;28;20030;-68
2020/12/12 10:54:55;;;;;;;8.73;3.20;;;;;;;5.09;72.25;92366.78;5012037;28;20408;-71
2020/12/12 10:57:21;;;;;;;7.25;3.45;;;;;;;5.01;73.47;92363.88;5012625;28;20390;-69
2020/12/12 10:59:46;;;;;;;5.90;3.17;;;;;;;5.08;72.92;92354.69;5011319;28;20124;-69
2020/12/12 11:02:13;;;;;;;9.95;3.25;;;;;;;5.08;72.44;92360.75;5011859;28;20034;-69
2020/12/12 11:04:43;;;;;;;5.22;2.60;;;;;;;5.16;73.08;92367.09;5012054;28;20034;-70
2020/12/12 11:07:09;;;;;;;5.65;2.58;;;;;;;5.14;71.90;92370.03;5011597;28;20026;-67
2020/12/12 11:09:35;;;;;;;6.45;2.65;;;;;;;5.09;72.21;92364.16;5009589;28;20034;-66
2020/12/12 11:12:01;;;;;;;7.25;3.33;;;;;;;5.17;73.37;92369.44;5011379;28;20508;-66
2020/12/12 11:14:32;;;;;;;8.20;3.30;;;;;;;5.20;72.51;92362.72;5010081;28;20041;-67
2020/12/12 11:17:02;;;;;;;5.15;2.65;;;;;;;5.24;72.43;92363.66;5011633;28;20465;-67
2020/12/12 11:19:28;;;;;;;4.10;2.15;;;;;;;5.30;71.26;92364.25;5011645;28;20041;-67
2020/12/12 11:21:54;;;;;;;8.18;3.63;;;;;;;5.36;72.14;92373.56;5011730;28;20033;-67
2020/12/12 11:24:20;;;;;;;8.05;3.22;;;;;;;5.39;71.53;92371.06;5010701;28;20030;-67
2020/12/12 11:26:46;;;;;;;7.13;3.38;;;;;;;5.44;71.25;92362.19;5010469;28;20200;-67
2020/12/12 11:29:14;;;;;;;6.28;2.92;;;;;;;5.46;71.81;92362.66;5010433;28;20022;-66
2020/12/12 11:31:41;;;;;;;3.90;1.90;;;;;;;5.47;70.44;92366.06;5011821;28;20021;-67
2020/12/12 11:34:14;;;;;;;3.58;2.10;;;;;;;5.51;69.35;92362.44;5011313;28;20017;-67
2020/12/12 11:46:39;;;;;;;5.03;2.13;;;;;;;5.68;69.70;92358.19;5011979;28;20080;-66
2020/12/12 11:49:07;;;;;;;5.07;2.45;;;;;;;5.67;70.56;92359.28;5008853;28;20405;-67
2020/12/12 11:51:36;;;;;;;6.15;3.15;;;;;;;5.65;70.42;92356.97;5011592;28;20021;-67